Terminal Aerodrome Forecast
Issued by NWS Wichita, KS

Home | Current Version | Previous Version | Graphics & Text | Print | Product List | Glossary On
Versions: 1 2 3 4 5 6 7 8 9 10 11 12 13 14 15 16 17 18 19 20 21 22 23 24 25
842
FTUS43 KICT 262138 AAB
TAFICT
TAF AMD
KICT 262138Z 2622/2718 07010KT P6SM VCTS SCT030 OVC070CB
     FM270000 06013KT P6SM VCTS SCT030 BKN060CB
      TEMPO 2700/2702 VRB25G40KT 2SM +TSRA OVC030CB
     FM270600 02015KT P6SM VCSH SCT009 BKN015
     FM271400 01014KT P6SM SCT015 BKN080
     FM271700 01015KT P6SM SCT025=

USA.gov is the U.S. government's official web portal to all federal, state and local government web resources and services.